createdAt,value
2018-12-23T00:00:57.148Z,2.30
2018-12-23T00:01:57.196Z,2.70
2018-12-23T00:02:57.114Z,3.00
2018-12-23T00:03:57.109Z,2.30
2018-12-23T00:04:57.111Z,2.30
2018-12-23T00:05:57.088Z,3.00
2018-12-23T00:06:57.097Z,2.80
2018-12-23T00:07:57.075Z,2.80
2018-12-23T00:08:57.080Z,2.30
2018-12-23T00:09:57.039Z,2.10
2018-12-23T00:10:57.028Z,2.50
2018-12-23T00:11:57.056Z,2.80
2018-12-23T00:12:57.003Z,3.10
2018-12-23T00:13:57.030Z,3.10
2018-12-23T00:14:56.986Z,2.10
2018-12-23T00:15:56.973Z,2.10
2018-12-23T00:16:56.984Z,2.40
2018-12-23T00:17:56.959Z,2.60
2018-12-23T00:18:56.934Z,1.90
2018-12-23T00:19:57.000Z,2.60
2018-12-23T00:20:56.944Z,3.00
2018-12-23T00:21:56.906Z,2.20
2018-12-23T00:22:56.961Z,2.30
2018-12-23T00:23:56.892Z,2.60
2018-12-23T00:24:56.905Z,2.00
2018-12-23T00:25:56.867Z,2.00
2018-12-23T00:26:56.854Z,2.40
2018-12-23T00:27:56.836Z,2.00
2018-12-23T00:28:56.849Z,2.70
2018-12-23T00:29:56.851Z,2.70
2018-12-23T00:30:56.800Z,3.80
2018-12-23T00:31:56.825Z,2.80
2018-12-23T00:32:56.805Z,2.60
2018-12-23T00:33:56.767Z,2.90
2018-12-23T00:34:56.758Z,2.60
2018-12-23T00:35:56.766Z,2.50
2018-12-23T00:36:56.735Z,2.80
2018-12-23T00:37:56.778Z,2.50
2018-12-23T00:38:56.716Z,2.70
2018-12-23T00:39:56.701Z,2.60
2018-12-23T00:40:56.732Z,2.80
2018-12-23T00:41:56.691Z,2.50
2018-12-23T00:42:56.677Z,2.60
2018-12-23T00:43:56.657Z,2.50
2018-12-23T00:44:56.646Z,2.60
2018-12-23T00:45:56.645Z,2.50
2018-12-23T00:46:56.659Z,2.60
2018-12-23T00:47:56.611Z,2.60
2018-12-23T00:48:56.648Z,2.60
2018-12-23T00:49:56.628Z,2.30
2018-12-23T00:50:56.579Z,2.50
2018-12-23T00:51:56.649Z,2.60
2018-12-23T00:52:56.589Z,2.60
2018-12-23T00:53:56.547Z,2.30
2018-12-23T00:54:56.552Z,2.20
2018-12-23T00:55:56.528Z,2.20
2018-12-23T00:56:56.518Z,2.20
2018-12-23T00:57:56.529Z,2.10
2018-12-23T00:58:56.532Z,2.20
2018-12-23T00:59:56.482Z,2.20
2018-12-23T01:00:56.496Z,2.30
2018-12-23T01:01:56.482Z,2.00
2018-12-23T01:02:56.462Z,2.20
2018-12-23T01:03:56.468Z,1.70
2018-12-23T01:04:56.428Z,1.90
2018-12-23T01:05:56.416Z,1.90
2018-12-23T01:06:56.421Z,1.90
2018-12-23T01:07:56.429Z,1.60
2018-12-23T01:08:56.380Z,1.60
2018-12-23T01:09:56.402Z,1.60
2018-12-23T01:10:56.367Z,1.60
2018-12-23T01:11:56.347Z,2.00
2018-12-23T01:12:56.348Z,1.60
2018-12-23T01:13:56.633Z,1.50
2018-12-23T01:14:56.315Z,1.60
2018-12-23T01:15:56.328Z,1.40
2018-12-23T01:16:56.299Z,1.50
2018-12-23T01:17:56.284Z,1.50
2018-12-23T01:18:56.298Z,1.40
2018-12-23T01:19:56.274Z,1.40
2018-12-23T01:20:56.244Z,1.40
2018-12-23T01:21:56.239Z,1.40
2018-12-23T01:22:56.254Z,1.40
2018-12-23T01:23:56.257Z,1.40
2018-12-23T01:24:56.217Z,1.60
2018-12-23T01:25:56.195Z,1.50
2018-12-23T01:26:56.184Z,1.60
2018-12-23T01:27:56.207Z,1.60
2018-12-23T01:28:56.172Z,1.50
2018-12-23T01:29:56.183Z,1.50
2018-12-23T01:30:56.145Z,1.60
2018-12-23T01:31:56.136Z,1.50
2018-12-23T01:32:56.114Z,1.60
2018-12-23T01:33:56.112Z,1.30
2018-12-23T01:34:56.127Z,1.60
2018-12-23T01:35:56.078Z,1.40
2018-12-23T01:36:56.087Z,1.40
2018-12-23T01:37:56.075Z,1.60
2018-12-23T01:38:56.045Z,1.70
2018-12-23T01:39:56.065Z,1.60
2018-12-23T01:40:56.057Z,1.50
2018-12-23T01:41:56.048Z,1.60
2018-12-23T01:42:56.017Z,1.80
2018-12-23T01:43:55.998Z,1.90
2018-12-23T01:44:56.017Z,1.70
2018-12-23T01:45:55.995Z,2.00
2018-12-23T01:46:55.976Z,1.70
2018-12-23T01:47:55.957Z,1.70
2018-12-23T01:48:55.934Z,1.60
2018-12-23T01:49:55.929Z,1.80
2018-12-23T01:50:55.949Z,1.90
2018-12-23T01:51:55.925Z,2.00
2018-12-23T01:52:55.893Z,1.90
2018-12-23T01:53:55.902Z,2.00
2018-12-23T01:54:55.876Z,1.90
2018-12-23T01:55:55.856Z,2.00
2018-12-23T01:56:55.869Z,1.90
2018-12-23T01:57:55.842Z,1.70
2018-12-23T01:58:55.838Z,1.90
2018-12-23T01:59:55.820Z,1.90
2018-12-23T02:00:55.810Z,2.10
2018-12-23T02:01:55.886Z,2.00
2018-12-23T02:02:55.820Z,1.90
2018-12-23T02:03:55.804Z,2.00
2018-12-23T02:04:55.783Z,2.00
2018-12-23T02:05:55.762Z,2.30
2018-12-23T02:06:55.762Z,2.20
2018-12-23T02:07:55.745Z,2.10
2018-12-23T02:08:55.749Z,2.00
2018-12-23T02:09:55.704Z,2.40
2018-12-23T02:10:55.697Z,2.20
2018-12-23T02:11:55.722Z,2.40
2018-12-23T02:12:55.674Z,2.40
2018-12-23T02:13:55.665Z,2.10
2018-12-23T02:14:55.654Z,2.30
2018-12-23T02:15:55.682Z,2.10
2018-12-23T02:16:55.625Z,2.30
2018-12-23T02:17:55.636Z,2.20
2018-12-23T02:18:55.637Z,2.50
2018-12-23T02:19:55.595Z,2.10
2018-12-23T02:20:55.599Z,2.30
2018-12-23T02:21:55.566Z,2.30
2018-12-23T02:22:55.635Z,2.80
2018-12-23T02:23:55.553Z,2.50
2018-12-23T02:24:55.544Z,2.20
2018-12-23T02:25:55.523Z,2.50
2018-12-23T02:26:55.552Z,2.50
2018-12-23T02:27:55.544Z,2.70
2018-12-23T02:28:55.499Z,2.80
2018-12-23T02:29:55.496Z,2.80
2018-12-23T02:30:55.484Z,3.10
2018-12-23T02:31:55.465Z,2.80
2018-12-23T02:32:55.478Z,2.70
2018-12-23T02:33:55.465Z,2.70
2018-12-23T02:34:55.431Z,2.80
2018-12-23T02:35:55.972Z,3.00
2018-12-23T02:36:55.417Z,2.90
2018-12-23T02:37:55.394Z,2.70
2018-12-23T02:38:57.567Z,3.20
2018-12-23T02:39:55.369Z,2.70
2018-12-23T02:40:55.356Z,3.10
2018-12-23T02:41:55.358Z,3.20
2018-12-23T02:42:55.351Z,3.10
2018-12-23T02:43:55.323Z,2.90
2018-12-23T02:44:55.352Z,3.10
2018-12-23T02:45:55.329Z,3.00
2018-12-23T02:46:55.353Z,3.90
2018-12-23T02:47:55.298Z,2.90
2018-12-23T02:48:55.275Z,3.10
2018-12-23T02:49:55.311Z,2.90
2018-12-23T02:50:55.258Z,2.90
2018-12-23T02:51:55.241Z,3.00
2018-12-23T02:52:55.221Z,2.70
2018-12-23T02:53:55.266Z,2.90
2018-12-23T02:54:55.231Z,3.00
2018-12-23T02:55:55.205Z,2.90
2018-12-23T02:56:55.182Z,2.90
2018-12-23T02:57:55.198Z,2.90
2018-12-23T02:58:55.158Z,2.50
2018-12-23T02:59:55.147Z,3.00
2018-12-23T03:00:55.151Z,2.70
2018-12-23T03:01:55.136Z,2.50
2018-12-23T03:02:55.168Z,2.70
2018-12-23T03:03:55.121Z,2.60
2018-12-23T03:04:55.099Z,2.70
2018-12-23T03:05:55.086Z,2.70
2018-12-23T03:06:55.082Z,2.20
2018-12-23T03:07:55.137Z,2.30
2018-12-23T03:08:55.067Z,2.00
2018-12-23T03:09:55.047Z,2.20
2018-12-23T03:10:55.029Z,2.30
2018-12-23T03:11:55.043Z,2.20
2018-12-23T03:12:55.010Z,2.10
2018-12-23T03:13:55.071Z,2.30
2018-12-23T03:14:54.981Z,2.00
2018-12-23T03:15:54.978Z,2.00
2018-12-23T03:16:54.960Z,2.40
2018-12-23T03:17:55.000Z,2.40
2018-12-23T03:18:54.953Z,2.50
2018-12-23T03:19:55.002Z,2.40
2018-12-23T03:20:54.923Z,2.50
2018-12-23T03:21:54.908Z,2.50
2018-12-23T03:22:54.929Z,3.00
2018-12-23T03:23:54.890Z,2.80
2018-12-23T03:24:54.924Z,2.90
2018-12-23T03:25:54.863Z,3.60
2018-12-23T03:26:54.844Z,3.40
2018-12-23T03:27:54.837Z,3.30
2018-12-23T03:28:54.822Z,4.30
2018-12-23T03:29:54.821Z,2.90
2018-12-23T03:30:54.844Z,3.60
2018-12-23T03:31:54.796Z,3.20
2018-12-23T03:32:54.823Z,2.90
2018-12-23T03:33:54.772Z,4.30
2018-12-23T03:34:54.767Z,3.20
2018-12-23T03:35:54.791Z,3.50
2018-12-23T03:36:54.739Z,3.20
2018-12-23T03:37:54.726Z,4.00
2018-12-23T03:38:54.745Z,3.90
2018-12-23T03:39:54.708Z,3.60
2018-12-23T03:40:54.727Z,3.90
2018-12-23T03:41:54.710Z,3.40
2018-12-23T03:42:54.667Z,3.50
2018-12-23T03:43:54.660Z,3.50
2018-12-23T03:44:54.667Z,4.00
2018-12-23T03:45:54.679Z,4.20
2018-12-23T03:46:54.648Z,4.00
2018-12-23T03:47:54.653Z,5.00
2018-12-23T03:48:54.644Z,4.30
2018-12-23T03:49:54.594Z,5.60
2018-12-23T03:50:54.605Z,3.90
2018-12-23T03:51:54.568Z,4.90
2018-12-23T03:52:54.569Z,4.30
2018-12-23T03:53:54.558Z,4.40
2018-12-23T03:54:54.570Z,5.80
2018-12-23T03:55:54.532Z,4.90
2018-12-23T03:56:54.531Z,4.80
2018-12-23T03:57:54.497Z,4.50
2018-12-23T03:58:54.491Z,4.40
2018-12-23T03:59:54.508Z,5.20
2018-12-23T04:00:54.561Z,4.60
2018-12-23T04:01:54.458Z,4.50
2018-12-23T04:02:54.448Z,4.80
2018-12-23T04:03:54.438Z,5.20
2018-12-23T04:04:54.478Z,4.70
2018-12-23T04:05:54.439Z,4.60
2018-12-23T04:06:54.402Z,5.70
2018-12-23T04:07:54.418Z,4.70
2018-12-23T04:08:54.384Z,4.60
2018-12-23T04:09:54.370Z,4.70
2018-12-23T04:10:54.413Z,4.50
2018-12-23T04:11:54.360Z,4.50
2018-12-23T04:12:54.342Z,4.90
2018-12-23T04:13:54.329Z,4.90
2018-12-23T04:14:54.334Z,4.40
2018-12-23T04:15:54.342Z,4.60
2018-12-23T04:16:54.287Z,4.30
2018-12-23T04:17:54.279Z,4.30
2018-12-23T04:18:54.270Z,4.20
2018-12-23T04:19:54.262Z,4.40
2018-12-23T04:20:54.257Z,4.60
2018-12-23T04:21:54.295Z,4.30
2018-12-23T04:22:54.221Z,4.20
2018-12-23T04:23:54.213Z,4.00
2018-12-23T04:24:54.201Z,4.30
2018-12-23T04:25:54.209Z,4.50
2018-12-23T04:26:54.216Z,4.50
2018-12-23T04:27:54.174Z,4.10
2018-12-23T04:28:54.155Z,4.00
2018-12-23T04:29:54.147Z,4.30
2018-12-23T04:30:54.149Z,5.00
2018-12-23T04:31:54.161Z,4.30
2018-12-23T04:32:54.117Z,5.30
2018-12-23T04:33:54.122Z,5.00
2018-12-23T04:34:54.095Z,4.40
2018-12-23T04:35:54.081Z,4.30
2018-12-23T04:36:54.104Z,4.10
2018-12-23T04:37:54.098Z,5.30
2018-12-23T04:38:54.050Z,4.40
2018-12-23T04:39:54.056Z,4.50
2018-12-23T04:40:54.029Z,4.30
2018-12-23T04:41:54.015Z,4.50
2018-12-23T04:42:54.028Z,5.00
2018-12-23T04:43:53.994Z,4.60
2018-12-23T04:44:53.983Z,5.00
2018-12-23T04:45:53.976Z,4.40
2018-12-23T04:46:53.955Z,5.60
2018-12-23T04:47:53.951Z,5.20
2018-12-23T04:48:53.964Z,4.40
2018-12-23T04:49:53.927Z,5.30
2018-12-23T04:50:53.917Z,4.60
2018-12-23T04:51:53.906Z,5.30
2018-12-23T04:52:53.893Z,4.40
2018-12-23T04:53:53.969Z,4.30
2018-12-23T04:54:53.895Z,4.50
2018-12-23T04:55:53.861Z,4.30
2018-12-23T04:56:53.844Z,4.50
2018-12-23T04:57:53.875Z,4.10
2018-12-23T04:58:53.846Z,4.60
2018-12-23T04:59:53.886Z,4.40
2018-12-23T05:00:53.801Z,4.30
2018-12-23T05:01:53.834Z,5.20
2018-12-23T05:02:53.781Z,5.20
2018-12-23T05:03:53.765Z,4.30
2018-12-23T05:04:53.785Z,4.80
2018-12-23T05:05:53.756Z,4.30
2018-12-23T05:06:53.733Z,4.50
2018-12-23T05:07:53.736Z,4.10
2018-12-23T05:08:53.711Z,4.40
2018-12-23T05:09:53.744Z,4.00
2018-12-23T05:10:53.707Z,4.00
2018-12-23T05:11:53.700Z,4.00
2018-12-23T05:12:53.684Z,4.30
2018-12-23T05:13:53.654Z,5.00
2018-12-23T05:14:53.649Z,4.30
2018-12-23T05:15:53.683Z,6.10
2018-12-23T05:16:53.629Z,5.00
2018-12-23T05:17:53.628Z,5.20
2018-12-23T05:18:53.604Z,5.00
2018-12-23T05:19:53.604Z,4.80
2018-12-23T05:20:53.620Z,5.50
2018-12-23T05:21:53.603Z,4.90
2018-12-23T05:22:53.559Z,4.70
2018-12-23T05:23:53.572Z,5.20
2018-12-23T05:24:53.540Z,5.10
2018-12-23T05:25:53.579Z,5.90
2018-12-23T05:26:53.529Z,5.90
2018-12-23T05:27:53.500Z,7.70
2018-12-23T05:28:53.500Z,6.30
2018-12-23T05:29:53.484Z,7.40
2018-12-23T05:30:53.477Z,7.60
2018-12-23T05:31:53.482Z,6.90
2018-12-23T05:32:53.451Z,5.60
2018-12-23T05:33:53.455Z,7.30
2018-12-23T05:34:53.422Z,7.90
2018-12-23T05:35:53.415Z,7.50
2018-12-23T05:36:53.424Z,8.20
2018-12-23T05:37:53.389Z,6.80
2018-12-23T05:38:53.382Z,9.30
2018-12-23T05:39:53.394Z,9.30
2018-12-23T05:40:53.369Z,10.10
2018-12-23T05:41:53.397Z,10.70
2018-12-23T05:42:53.340Z,9.40
2018-12-23T05:43:53.334Z,10.70
2018-12-23T05:44:53.336Z,11.70
2018-12-23T05:45:53.325Z,11.30
2018-12-23T05:46:53.311Z,12.90
2018-12-23T05:47:53.317Z,11.20
2018-12-23T05:48:53.283Z,11.10
2018-12-23T05:49:53.259Z,13.70
2018-12-23T05:50:53.256Z,12.60
2018-12-23T05:51:53.258Z,11.10
2018-12-23T05:52:53.258Z,11.60
2018-12-23T05:53:53.231Z,10.90
2018-12-23T05:54:53.236Z,9.70
2018-12-23T05:55:53.204Z,10.80
2018-12-23T05:56:53.186Z,11.80
2018-12-23T05:57:53.190Z,10.80
2018-12-23T05:58:53.251Z,8.90
2018-12-23T05:59:53.152Z,10.10
2018-12-23T06:00:53.152Z,8.00
2018-12-23T06:01:53.122Z,8.90
2018-12-23T06:02:53.154Z,7.10
2018-12-23T06:03:53.134Z,8.00
2018-12-23T06:04:53.094Z,7.10
2018-12-23T06:05:53.084Z,7.40
2018-12-23T06:07:00.772Z,8.00
2018-12-23T06:07:54.069Z,7.60
2018-12-23T06:08:53.096Z,6.90
2018-12-23T06:09:53.054Z,6.60
2018-12-23T06:10:53.028Z,5.60
2018-12-23T06:11:53.011Z,6.60
2018-12-23T06:12:53.024Z,7.80
2018-12-23T06:13:53.000Z,7.90
2018-12-23T06:14:53.013Z,8.60
2018-12-23T06:15:52.982Z,7.90
2018-12-23T06:16:52.958Z,7.00
2018-12-23T06:17:52.961Z,7.70
2018-12-23T06:18:52.934Z,6.90
2018-12-23T06:19:53.012Z,6.80
2018-12-23T06:20:52.928Z,6.20
2018-12-23T06:21:52.919Z,7.90
2018-12-23T06:22:52.906Z,7.40
2018-12-23T06:23:52.894Z,5.90
2018-12-23T06:24:52.875Z,5.90
2018-12-23T06:25:52.910Z,6.90
2018-12-23T06:26:52.869Z,6.50
2018-12-23T06:27:52.846Z,5.90
2018-12-23T06:28:52.835Z,6.60
2018-12-23T06:29:52.816Z,6.80
2018-12-23T06:30:52.822Z,7.90
2018-12-23T06:31:52.871Z,8.20
2018-12-23T06:32:52.826Z,7.20
2018-12-23T06:33:52.772Z,7.40
2018-12-23T06:34:52.768Z,7.80
2018-12-23T06:35:52.789Z,7.60
2018-12-23T06:36:52.748Z,7.50
2018-12-23T06:37:52.728Z,7.40
2018-12-23T06:38:52.753Z,7.70
2018-12-23T06:39:52.710Z,7.50
2018-12-23T06:40:52.769Z,6.40
2018-12-23T06:41:52.701Z,7.20
2018-12-23T06:42:52.676Z,8.10
2018-12-23T06:43:52.672Z,7.10
2018-12-23T06:44:52.675Z,7.60
2018-12-23T06:45:52.644Z,6.10
2018-12-23T06:46:52.650Z,6.70
2018-12-23T06:47:52.616Z,7.50
2018-12-23T06:48:52.609Z,6.20
2018-12-23T06:49:52.618Z,6.80
2018-12-23T06:50:52.617Z,7.30
2018-12-23T06:51:52.586Z,6.50
2018-12-23T06:52:52.571Z,6.70
2018-12-23T06:53:52.552Z,6.60
2018-12-23T06:54:52.538Z,6.80
2018-12-23T06:55:52.543Z,7.30
2018-12-23T06:56:52.539Z,7.40
2018-12-23T06:57:52.504Z,7.00
2018-12-23T06:58:52.527Z,6.90
2018-12-23T06:59:52.505Z,6.60
2018-12-23T07:00:52.471Z,7.10
2018-12-23T07:01:52.489Z,6.70
2018-12-23T07:02:52.454Z,6.50
2018-12-23T07:03:52.435Z,6.30
2018-12-23T07:04:52.447Z,6.70
2018-12-23T07:05:52.421Z,7.10
2018-12-23T07:06:52.403Z,5.70
2018-12-23T07:07:52.458Z,6.00
2018-12-23T07:08:52.386Z,5.30
2018-12-23T07:09:52.368Z,5.60
2018-12-23T07:10:52.363Z,4.80
2018-12-23T07:11:52.359Z,6.60
2018-12-23T07:12:52.356Z,5.20
2018-12-23T07:13:52.324Z,7.30
2018-12-23T07:14:52.315Z,6.90
2018-12-23T07:15:52.305Z,5.90
2018-12-23T07:16:52.298Z,6.10
2018-12-23T07:17:52.305Z,7.30
2018-12-23T07:18:52.271Z,6.30
2018-12-23T07:19:52.256Z,5.80
2018-12-23T07:20:52.258Z,6.30
2018-12-23T07:21:52.238Z,7.00
2018-12-23T07:22:52.233Z,5.50
2018-12-23T07:23:52.236Z,6.50
2018-12-23T07:24:52.204Z,6.60
2018-12-23T07:25:52.198Z,6.50
2018-12-23T07:26:52.189Z,6.70
2018-12-23T07:27:52.199Z,6.90
2018-12-23T07:28:52.176Z,7.10
2018-12-23T07:29:52.167Z,7.30
2018-12-23T07:30:52.146Z,7.50
2018-12-23T07:31:52.153Z,6.80
2018-12-23T07:32:52.116Z,6.60
2018-12-23T07:33:52.114Z,7.00
2018-12-23T07:34:52.106Z,7.70
2018-12-23T07:35:52.089Z,7.00
2018-12-23T07:36:52.135Z,7.00
2018-12-23T07:37:52.102Z,7.60
2018-12-23T07:38:52.062Z,7.30
2018-12-23T07:39:52.043Z,8.00
2018-12-23T07:40:52.041Z,7.80
2018-12-23T07:41:52.078Z,5.70
2018-12-23T07:42:52.075Z,8.40
2018-12-23T07:43:52.002Z,7.30
2018-12-23T07:44:51.996Z,7.60
2018-12-23T07:45:51.974Z,7.50
2018-12-23T07:46:51.964Z,6.90
2018-12-23T07:47:51.976Z,7.80
2018-12-23T07:48:51.939Z,7.50
2018-12-23T07:49:51.930Z,7.10
2018-12-23T07:50:53.780Z,8.90
2018-12-23T07:51:51.906Z,6.70
2018-12-23T07:52:51.928Z,6.90
2018-12-23T07:53:51.891Z,8.60
2018-12-23T07:54:51.870Z,6.80
2018-12-23T07:55:51.861Z,7.20
2018-12-23T07:56:51.857Z,7.90
2018-12-23T07:57:51.898Z,7.70
2018-12-23T07:58:51.826Z,8.50
2018-12-23T07:59:51.819Z,9.10
2018-12-23T08:00:51.801Z,7.90
2018-12-23T08:01:51.792Z,7.10
2018-12-23T08:02:51.826Z,7.00
2018-12-23T08:03:51.782Z,8.20
2018-12-23T08:04:51.780Z,7.70
2018-12-23T08:05:51.748Z,7.30
2018-12-23T08:06:51.884Z,7.90
2018-12-23T08:07:51.751Z,7.10
2018-12-23T08:08:51.728Z,8.50
2018-12-23T08:09:51.707Z,8.50
2018-12-23T08:10:51.713Z,7.30
2018-12-23T08:11:51.679Z,6.50
2018-12-23T08:12:51.673Z,8.10
2018-12-23T08:13:51.691Z,7.60
2018-12-23T08:14:51.657Z,7.80
2018-12-23T08:15:51.657Z,7.40
2018-12-23T08:16:51.623Z,7.70
2018-12-23T08:17:51.617Z,5.80
2018-12-23T08:18:51.634Z,8.10
2018-12-23T08:19:51.601Z,7.00
2018-12-23T08:20:51.615Z,7.40
2018-12-23T08:21:51.575Z,8.90
2018-12-23T08:22:51.565Z,7.80
2018-12-23T08:23:51.624Z,7.60
2018-12-23T08:24:51.544Z,6.50
2018-12-23T08:25:51.536Z,9.10
2018-12-23T08:26:51.525Z,7.60
2018-12-23T08:27:51.509Z,7.80
2018-12-23T08:28:51.526Z,6.70
2018-12-23T08:29:51.480Z,9.40
2018-12-23T08:30:51.474Z,7.90
2018-12-23T08:31:51.468Z,8.80
2018-12-23T08:32:51.458Z,8.10
2018-12-23T08:33:51.466Z,6.40
2018-12-23T08:34:51.432Z,7.60
2018-12-23T08:35:51.420Z,8.40
2018-12-23T08:36:51.405Z,9.30
2018-12-23T08:37:51.415Z,7.70
2018-12-23T08:38:51.440Z,7.40
2018-12-23T08:39:51.370Z,7.60
2018-12-23T08:40:51.382Z,8.00
2018-12-23T08:41:51.358Z,7.70
2018-12-23T08:42:51.342Z,9.10
2018-12-23T08:43:51.353Z,6.90
2018-12-23T08:44:51.324Z,6.20
2018-12-23T08:45:51.307Z,7.50
2018-12-23T08:46:51.308Z,8.30
2018-12-23T08:47:51.304Z,7.60
2018-12-23T08:48:51.306Z,6.90
2018-12-23T08:49:51.286Z,7.50
2018-12-23T08:50:51.276Z,7.70
2018-12-23T08:51:51.241Z,7.20
2018-12-23T08:52:51.229Z,7.10
2018-12-23T08:53:51.225Z,9.00
2018-12-23T08:54:51.238Z,7.00
2018-12-23T08:55:51.204Z,7.20
2018-12-23T08:56:51.217Z,7.60
2018-12-23T08:57:51.212Z,6.30
2018-12-23T08:58:51.163Z,7.10
2018-12-23T08:59:51.149Z,9.60
2018-12-23T09:00:51.145Z,7.30
2018-12-23T09:01:51.177Z,6.50
2018-12-23T09:02:52.154Z,7.00
2018-12-23T09:03:51.115Z,7.90
2018-12-23T09:04:51.095Z,6.70
2018-12-23T09:05:51.086Z,7.00
2018-12-23T09:06:52.073Z,6.10
2018-12-23T09:07:53.104Z,6.70
2018-12-23T09:08:51.065Z,8.10
2018-12-23T09:09:51.070Z,7.10
2018-12-23T09:10:51.027Z,7.80
2018-12-23T09:11:51.037Z,7.90
2018-12-23T09:12:51.019Z,6.20
2018-12-23T09:13:51.029Z,8.00
2018-12-23T09:14:50.998Z,5.90
2018-12-23T09:15:50.983Z,7.40
2018-12-23T09:16:51.789Z,7.50
2018-12-23T09:17:50.970Z,7.40
2018-12-23T09:18:50.957Z,7.00
2018-12-23T09:19:50.959Z,8.00
2018-12-23T09:20:50.924Z,8.10
2018-12-23T09:21:50.916Z,6.50
2018-12-23T09:22:50.893Z,7.30
2018-12-23T09:23:50.886Z,6.30
2018-12-23T09:24:50.912Z,7.50
2018-12-23T09:25:50.869Z,6.60
2018-12-23T09:26:50.898Z,7.40
2018-12-23T09:27:50.845Z,7.00
2018-12-23T09:28:50.880Z,7.90
2018-12-23T09:29:50.885Z,8.00
2018-12-23T09:30:50.928Z,6.70
2018-12-23T09:31:50.800Z,7.20
2018-12-23T09:32:50.795Z,6.30
2018-12-23T09:33:50.786Z,9.00
2018-12-23T09:34:50.813Z,7.10
2018-12-23T09:35:50.779Z,5.70
2018-12-23T09:36:50.749Z,6.70
2018-12-23T09:37:50.731Z,6.50
2018-12-23T09:38:50.729Z,7.40
2018-12-23T09:39:50.734Z,8.20
2018-12-23T09:40:50.771Z,7.20
2018-12-23T09:41:50.702Z,7.40
2018-12-23T09:42:50.680Z,6.50
2018-12-23T09:43:50.702Z,5.80
2018-12-23T09:44:50.656Z,7.20
2018-12-23T09:45:50.644Z,7.10
2018-12-23T09:46:50.633Z,6.60
2018-12-23T09:47:50.635Z,6.60
2018-12-23T09:48:50.647Z,7.60
2018-12-23T09:49:50.596Z,7.50
2018-12-23T09:50:50.612Z,7.00
2018-12-23T09:51:50.578Z,6.40
2018-12-23T09:52:50.574Z,6.70
2018-12-23T09:53:50.573Z,7.20
2018-12-23T09:54:50.573Z,6.60
2018-12-23T09:55:50.542Z,6.50
2018-12-23T09:56:50.520Z,6.90
2018-12-23T09:57:50.518Z,5.70
2018-12-23T09:58:50.519Z,6.40
2018-12-23T09:59:50.517Z,7.40
2018-12-23T10:00:50.479Z,6.00
2018-12-23T10:01:50.469Z,7.50
2018-12-23T10:02:50.447Z,8.40
2018-12-23T10:03:50.437Z,7.70
2018-12-23T10:04:50.483Z,6.50
2018-12-23T10:05:50.435Z,6.50
2018-12-23T10:06:50.402Z,7.30
2018-12-23T10:07:50.398Z,6.10
2018-12-23T10:08:50.387Z,6.10
2018-12-23T10:09:50.370Z,6.60
2018-12-23T10:10:50.378Z,7.50
2018-12-23T10:11:50.369Z,5.70
2018-12-23T10:12:50.341Z,6.50
2018-12-23T10:13:50.352Z,8.70
2018-12-23T10:14:50.325Z,9.00
2018-12-23T10:15:50.332Z,6.70
2018-12-23T10:16:50.299Z,6.20
2018-12-23T10:17:50.285Z,7.10
2018-12-23T10:18:50.272Z,8.60
2018-12-23T10:19:50.264Z,6.40
2018-12-23T10:20:50.284Z,6.80
2018-12-23T10:21:50.246Z,5.90
2018-12-23T10:22:50.288Z,8.10
2018-12-23T10:23:50.219Z,7.80
2018-12-23T10:24:50.228Z,8.40
2018-12-23T10:25:50.247Z,7.10
2018-12-23T10:26:50.189Z,6.50
2018-12-23T10:27:50.179Z,7.20
2018-12-23T10:28:50.166Z,6.40
2018-12-23T10:29:50.154Z,7.40
2018-12-23T10:30:50.209Z,6.60
2018-12-23T10:31:50.152Z,6.50
2018-12-23T10:32:50.124Z,8.90
2018-12-23T10:33:50.107Z,7.40
2018-12-23T10:34:50.098Z,7.50
2018-12-23T10:35:50.090Z,7.10
2018-12-23T10:36:50.108Z,6.20
2018-12-23T10:37:50.077Z,7.90
2018-12-23T10:38:50.054Z,6.70
2018-12-23T10:39:50.050Z,8.10
2018-12-23T10:40:50.030Z,6.80
2018-12-23T10:41:50.051Z,7.30
2018-12-23T10:42:50.016Z,7.30
2018-12-23T10:43:49.994Z,5.80
2018-12-23T10:44:49.988Z,7.20
2018-12-23T10:45:50.028Z,6.10
2018-12-23T10:46:49.999Z,7.80
2018-12-23T10:47:49.961Z,6.40
2018-12-23T10:48:49.995Z,7.00
2018-12-23T10:49:49.947Z,7.90
2018-12-23T10:50:49.929Z,6.60
2018-12-23T10:51:49.939Z,6.10
2018-12-23T10:52:49.905Z,5.80
2018-12-23T10:53:49.897Z,7.10
2018-12-23T10:54:49.903Z,7.80
2018-12-23T10:55:49.893Z,7.50
2018-12-23T10:56:49.856Z,7.50
2018-12-23T10:57:49.917Z,6.90
2018-12-23T10:58:49.835Z,7.60
2018-12-23T10:59:49.843Z,6.60
2018-12-23T11:00:49.810Z,7.20
2018-12-23T11:01:49.798Z,9.40
2018-12-23T11:02:49.796Z,5.90
2018-12-23T11:03:49.806Z,6.90
2018-12-23T11:04:49.794Z,6.10
2018-12-23T11:05:49.764Z,4.80
2018-12-23T11:06:49.748Z,7.90
2018-12-23T11:07:49.738Z,7.00
2018-12-23T11:08:49.734Z,8.20
2018-12-23T11:09:49.752Z,6.20
2018-12-23T11:10:49.717Z,6.20
2018-12-23T11:11:49.689Z,6.40
2018-12-23T11:12:49.678Z,7.20
2018-12-23T11:13:49.682Z,6.30
2018-12-23T11:14:49.652Z,5.30
2018-12-23T11:15:49.694Z,6.70
2018-12-23T11:16:49.644Z,6.90
2018-12-23T11:17:49.617Z,7.70
2018-12-23T11:18:49.657Z,7.40
2018-12-23T11:19:49.603Z,5.80
2018-12-23T11:20:49.636Z,5.40
2018-12-23T11:21:49.579Z,5.80
2018-12-23T11:22:49.577Z,7.30
2018-12-23T11:23:49.572Z,7.20
2018-12-23T11:24:49.553Z,7.40
2018-12-23T11:25:49.570Z,7.40
2018-12-23T11:26:49.584Z,8.80
2018-12-23T11:27:49.519Z,7.10
2018-12-23T11:28:49.510Z,6.80
2018-12-23T11:29:49.493Z,7.20
2018-12-23T11:30:49.483Z,6.30
2018-12-23T11:31:49.490Z,8.20
2018-12-23T11:32:49.454Z,7.10
2018-12-23T11:33:49.457Z,5.70
2018-12-23T11:34:49.462Z,6.20
2018-12-23T11:35:49.423Z,8.30
2018-12-23T11:36:49.455Z,7.70
2018-12-23T11:37:49.434Z,5.90
2018-12-23T11:38:49.385Z,7.10
2018-12-23T11:39:49.429Z,7.70
2018-12-23T11:40:49.370Z,6.60
2018-12-23T11:41:49.361Z,7.00
2018-12-23T11:42:49.357Z,7.80
2018-12-23T11:43:49.333Z,8.00
2018-12-23T11:44:49.335Z,6.70
2018-12-23T11:45:49.330Z,6.10
2018-12-23T11:46:49.308Z,5.30
2018-12-23T11:47:49.295Z,6.00
2018-12-23T11:48:49.324Z,6.90
2018-12-23T11:49:49.306Z,6.80
2018-12-23T11:50:49.258Z,7.40
2018-12-23T11:51:49.307Z,6.10
2018-12-23T11:52:49.229Z,6.80
2018-12-23T11:53:49.222Z,4.30
2018-12-23T11:54:49.267Z,6.20
2018-12-23T11:55:49.311Z,6.20
2018-12-23T11:56:49.186Z,5.90
2018-12-23T11:57:49.208Z,7.40
2018-12-23T11:58:49.162Z,7.70
2018-12-23T11:59:49.155Z,7.10
2018-12-23T12:00:49.170Z,7.60
2018-12-23T12:01:49.143Z,6.10
2018-12-23T12:02:49.122Z,6.50
2018-12-23T12:03:49.147Z,6.40
2018-12-23T12:04:49.119Z,5.60
2018-12-23T12:05:49.117Z,5.70
2018-12-23T12:06:49.090Z,6.60
2018-12-23T12:07:49.066Z,6.10
2018-12-23T12:08:49.061Z,6.60
2018-12-23T12:09:49.048Z,4.70
2018-12-23T12:10:49.076Z,5.40
2018-12-23T12:11:50.947Z,6.80
2018-12-23T12:12:49.017Z,7.10
2018-12-23T12:13:49.001Z,6.70
2018-12-23T12:14:49.020Z,5.50
2018-12-23T12:15:49.000Z,6.10
2018-12-23T12:16:48.965Z,5.80
2018-12-23T12:17:48.957Z,7.10
2018-12-23T12:18:48.999Z,6.50
2018-12-23T12:19:48.964Z,6.20
2018-12-23T12:20:48.923Z,5.10
2018-12-23T12:21:48.942Z,7.90
2018-12-23T12:22:48.910Z,6.80
2018-12-23T12:23:48.887Z,8.20
2018-12-23T12:24:48.904Z,5.60
2018-12-23T12:25:48.881Z,5.50
2018-12-23T12:26:48.892Z,4.70
2018-12-23T12:27:48.888Z,6.40
2018-12-23T12:28:48.856Z,5.60
2018-12-23T12:29:48.832Z,6.00
2018-12-23T12:30:48.861Z,5.90
2018-12-23T12:31:48.819Z,5.80
2018-12-23T12:32:48.853Z,7.20
2018-12-23T12:33:48.814Z,6.20
2018-12-23T12:34:48.823Z,6.70
2018-12-23T12:35:48.756Z,7.40
2018-12-23T12:36:48.767Z,6.10
2018-12-23T12:37:48.744Z,9.00
2018-12-23T12:38:52.244Z,7.90
2018-12-23T12:39:48.761Z,7.70
2018-12-23T12:40:48.725Z,8.80
2018-12-23T12:41:48.699Z,6.30
2018-12-23T12:42:48.685Z,7.40
2018-12-23T12:43:48.679Z,8.50
2018-12-23T12:44:48.694Z,7.30
2018-12-23T12:45:48.654Z,7.00
2018-12-23T12:46:48.640Z,8.80
2018-12-23T12:47:48.647Z,6.40
2018-12-23T12:48:48.625Z,7.90
2018-12-23T12:49:48.622Z,6.80
2018-12-23T12:50:48.599Z,7.20
2018-12-23T12:51:48.586Z,8.60
2018-12-23T12:52:48.575Z,8.50
2018-12-23T12:53:48.573Z,8.60
2018-12-23T12:54:48.594Z,8.70
2018-12-23T12:55:48.592Z,8.10
2018-12-23T12:56:48.534Z,9.80
2018-12-23T12:57:48.522Z,8.90
2018-12-23T12:58:48.512Z,8.30
2018-12-23T12:59:48.557Z,7.50
2018-12-23T13:00:48.502Z,7.20
2018-12-23T13:01:48.491Z,10.60
2018-12-23T13:02:48.467Z,8.40
2018-12-23T13:03:48.456Z,8.00
2018-12-23T13:04:48.454Z,10.60
2018-12-23T13:05:48.454Z,10.00
2018-12-23T13:06:48.436Z,10.00
2018-12-23T13:07:48.425Z,7.90
2018-12-23T13:08:48.397Z,11.20
2018-12-23T13:09:48.411Z,10.40
2018-12-23T13:10:48.401Z,10.00
2018-12-23T13:11:48.362Z,9.40
2018-12-23T13:12:48.363Z,9.70
2018-12-23T13:13:48.351Z,11.60
2018-12-23T13:14:48.373Z,11.00
2018-12-23T13:15:48.324Z,8.40
2018-12-23T13:16:48.315Z,7.70
2018-12-23T13:17:48.308Z,10.10